LTFJ/SAW METAR and TAF weather

Enter ICAO airport designator
Station Type Date Time Source
LTFJ METAR 2020/01/22 17:50 UTC NOAA

LTFJ 221750Z 24006KT CAVOK 06/03 Q1024 NOSIG


Station Type Date Time Source
LTFJ Decoded METAR 2020/01/22 17:50 UTC NOAA

Istanbul / Sabiha Gokcen, Turkey (LTFJ) 40-53-55N 029-18-33E
Jan 22, 2020 - 12:50 PM EST / 2020.01.22 1750 UTC
Wind: from the WSW (240 degrees) at 7 MPH (6 KT):0
Visibility: greater than 7 mile(s):0
Temperature: 42 F (6 C)
Dew Point: 37 F (3 C)
Relative Humidity: 81%
Pressure (altimeter): 30.24 in. Hg (1024 hPa)
ob: LTFJ 221750Z 24006KT CAVOK 06/03 Q1024 NOSIG
cycle: 18

Station Type Date Time Source
LTFJ TAF 2020/01/22 18:03 UTC NOAA

TAF LTFJ 221640Z 2218/2318 24009KT CAVOK
BECMG 2304/2307 01015KT SCT012 BKN030
TEMPO 2308/2312 -SHSNRA

Example: see airport list